createdAt,value
2018-09-21T00:00:45.409Z,16.81
2018-09-21T00:01:45.411Z,16.83
2018-09-21T00:02:45.410Z,16.84
2018-09-21T00:03:45.410Z,16.87
2018-09-21T00:04:45.412Z,16.89
2018-09-21T00:05:45.411Z,16.89
2018-09-21T00:06:45.410Z,16.90
2018-09-21T00:07:45.412Z,16.76
2018-09-21T00:08:45.410Z,16.72
2018-09-21T00:09:45.411Z,16.65
2018-09-21T00:10:45.411Z,16.69
2018-09-21T00:11:45.412Z,16.58
2018-09-21T00:12:45.414Z,16.54
2018-09-21T00:13:45.419Z,16.72
2018-09-21T00:14:45.414Z,16.68
2018-09-21T00:15:45.416Z,16.66
2018-09-21T00:16:45.417Z,16.60
2018-09-21T00:17:45.415Z,16.54
2018-09-21T00:18:45.414Z,16.42
2018-09-21T00:19:45.413Z,16.38
2018-09-21T00:20:45.414Z,16.46
2018-09-21T00:21:45.416Z,16.46
2018-09-21T00:22:45.421Z,16.36
2018-09-21T00:23:45.417Z,16.33
2018-09-21T00:24:45.415Z,16.26
2018-09-21T00:25:45.416Z,16.32
2018-09-21T00:26:45.414Z,16.13
2018-09-21T00:27:45.414Z,16.16
2018-09-21T00:28:45.415Z,16.15
2018-09-21T00:29:45.417Z,16.15
2018-09-21T00:30:45.416Z,16.15
2018-09-21T00:31:45.422Z,16.13
2018-09-21T00:32:45.416Z,16.12
2018-09-21T00:33:45.417Z,16.08
2018-09-21T00:34:45.415Z,16.08
2018-09-21T00:35:45.416Z,16.09
2018-09-21T00:36:45.415Z,16.17
2018-09-21T00:37:45.417Z,16.01
2018-09-21T00:38:45.415Z,15.98
2018-09-21T00:39:45.420Z,16.05
2018-09-21T00:40:45.417Z,16.13
2018-09-21T00:41:45.419Z,16.05
2018-09-21T00:42:45.418Z,16.04
2018-09-21T00:43:45.416Z,16.04
2018-09-21T00:44:45.416Z,16.00
2018-09-21T00:45:45.418Z,15.94
2018-09-21T00:46:45.416Z,15.97
2018-09-21T00:47:45.418Z,15.98
2018-09-21T00:48:45.416Z,15.94
2018-09-21T00:49:45.417Z,15.94
2018-09-21T00:50:45.420Z,15.98
2018-09-21T00:51:45.416Z,15.95
2018-09-21T00:52:45.416Z,15.95
2018-09-21T00:53:45.417Z,15.92
2018-09-21T00:54:45.415Z,15.94
2018-09-21T00:55:45.416Z,15.92
2018-09-21T00:56:45.416Z,15.91
2018-09-21T00:57:45.419Z,15.90
2018-09-21T00:58:45.415Z,15.90
2018-09-21T00:59:45.415Z,15.92
2018-09-21T01:00:45.416Z,15.95
2018-09-21T01:01:45.422Z,15.90
2018-09-21T01:02:45.415Z,15.83
2018-09-21T01:03:45.415Z,15.83
2018-09-21T01:04:45.414Z,15.88
2018-09-21T01:05:45.415Z,15.84
2018-09-21T01:06:45.414Z,15.92
2018-09-21T01:07:45.415Z,15.86
2018-09-21T01:08:45.415Z,15.88
2018-09-21T01:09:45.414Z,15.86
2018-09-21T01:10:45.414Z,15.86
2018-09-21T01:11:45.417Z,15.90
2018-09-21T01:12:45.414Z,15.77
2018-09-21T01:13:45.414Z,15.90
2018-09-21T01:14:45.412Z,15.82
2018-09-21T01:15:45.411Z,15.82
2018-09-21T01:16:45.412Z,15.72
2018-09-21T01:17:45.411Z,15.76
2018-09-21T01:18:45.411Z,15.76
2018-09-21T01:19:45.411Z,15.77
2018-09-21T01:20:45.410Z,15.64
2018-09-21T01:21:45.411Z,15.73
2018-09-21T01:22:45.410Z,15.65
2018-09-21T01:23:45.411Z,15.73
2018-09-21T01:24:45.410Z,15.73
2018-09-21T01:25:45.411Z,15.68
2018-09-21T01:26:45.458Z,15.72
2018-09-21T01:27:45.409Z,15.67
2018-09-21T01:28:45.408Z,15.72
2018-09-21T01:29:45.410Z,15.65
2018-09-21T01:30:45.409Z,15.70
2018-09-21T01:31:45.409Z,15.73
2018-09-21T01:32:45.446Z,15.77
2018-09-21T01:33:45.408Z,15.86
2018-09-21T01:34:45.408Z,15.88
2018-09-21T01:35:45.406Z,15.90
2018-09-21T01:36:45.406Z,15.98
2018-09-21T01:37:45.406Z,16.00
2018-09-21T01:38:45.406Z,16.09
2018-09-21T01:39:45.406Z,16.09
2018-09-21T01:40:45.405Z,16.01
2018-09-21T01:41:45.404Z,16.10
2018-09-21T01:42:45.405Z,16.13
2018-09-21T01:43:45.404Z,16.15
2018-09-21T01:44:45.403Z,16.23
2018-09-21T01:45:45.405Z,16.41
2018-09-21T01:46:45.402Z,16.42
2018-09-21T01:47:45.403Z,16.39
2018-09-21T01:48:45.401Z,16.54
2018-09-21T01:49:45.401Z,16.65
2018-09-21T01:50:45.402Z,16.74
2018-09-21T01:51:45.402Z,16.78
2018-09-21T01:52:45.405Z,16.89
2018-09-21T01:53:45.402Z,16.93
2018-09-21T01:54:45.400Z,17.08
2018-09-21T01:55:45.401Z,17.11
2018-09-21T01:56:45.400Z,17.16
2018-09-21T01:57:45.401Z,17.36
2018-09-21T01:58:45.400Z,17.27
2018-09-21T01:59:45.399Z,17.48
2018-09-21T02:00:45.403Z,17.42
2018-09-21T02:01:45.399Z,17.42
2018-09-21T02:02:45.399Z,17.46
2018-09-21T02:03:45.402Z,17.39
2018-09-21T02:04:45.398Z,17.44
2018-09-21T02:05:45.399Z,17.41
2018-09-21T02:06:45.401Z,17.44
2018-09-21T02:07:45.397Z,17.52
2018-09-21T02:08:45.398Z,17.48
2018-09-21T02:09:45.399Z,17.33
2018-09-21T02:10:45.398Z,17.39
2018-09-21T02:11:45.397Z,17.29
2018-09-21T02:12:45.398Z,17.41
2018-09-21T02:13:45.399Z,17.39
2018-09-21T02:14:45.397Z,17.36
2018-09-21T02:15:45.398Z,17.26
2018-09-21T02:16:45.399Z,17.39
2018-09-21T02:17:45.428Z,17.39
2018-09-21T02:18:45.398Z,17.33
2018-09-21T02:19:45.398Z,17.44
2018-09-21T02:20:45.397Z,17.42
2018-09-21T02:21:45.399Z,17.46
2018-09-21T02:22:45.398Z,17.49
2018-09-21T02:23:45.396Z,17.56
2018-09-21T02:24:45.398Z,17.42
2018-09-21T02:25:45.396Z,17.49
2018-09-21T02:26:45.397Z,17.60
2018-09-21T02:27:45.397Z,17.56
2018-09-21T02:28:45.398Z,17.60
2018-09-21T02:29:45.397Z,17.63
2018-09-21T02:30:45.396Z,17.59
2018-09-21T02:31:45.397Z,17.63
2018-09-21T02:32:45.397Z,17.52
2018-09-21T02:33:45.400Z,17.44
2018-09-21T02:34:45.397Z,17.41
2018-09-21T02:35:45.396Z,17.48
2018-09-21T02:36:45.399Z,17.42
2018-09-21T02:37:45.399Z,17.42
2018-09-21T02:38:45.398Z,17.42
2018-09-21T02:39:45.397Z,17.44
2018-09-21T02:40:45.398Z,17.42
2018-09-21T02:41:45.398Z,17.41
2018-09-21T02:42:45.397Z,17.41
2018-09-21T02:43:45.396Z,17.48
2018-09-21T02:44:45.398Z,17.41
2018-09-21T02:45:45.401Z,17.44
2018-09-21T02:46:45.399Z,17.60
2018-09-21T02:47:45.398Z,17.64
2018-09-21T02:48:45.491Z,17.72
2018-09-21T02:49:45.399Z,17.72
2018-09-21T02:50:45.398Z,17.76
2018-09-21T02:51:45.398Z,17.71
2018-09-21T02:52:45.399Z,17.74
2018-09-21T02:53:45.400Z,17.76
2018-09-21T02:54:45.402Z,17.76
2018-09-21T02:55:45.399Z,17.79
2018-09-21T02:56:45.399Z,17.78
2018-09-21T02:57:45.401Z,18.05
2018-09-21T02:58:45.399Z,18.20
2018-09-21T02:59:45.399Z,18.20
2018-09-21T03:00:45.543Z,18.25
2018-09-21T03:01:45.401Z,18.18
2018-09-21T03:02:45.399Z,18.15
2018-09-21T03:03:45.400Z,18.19
2018-09-21T03:04:45.400Z,18.05
2018-09-21T03:05:45.401Z,18.07
2018-09-21T03:06:45.401Z,18.22
2018-09-21T03:07:45.400Z,18.19
2018-09-21T03:08:45.403Z,18.37
2018-09-21T03:09:45.402Z,18.43
2018-09-21T03:10:45.400Z,18.43
2018-09-21T03:11:45.402Z,18.50
2018-09-21T03:12:45.420Z,18.68
2018-09-21T03:13:45.404Z,18.77
2018-09-21T03:14:45.403Z,18.92
2018-09-21T03:15:45.403Z,19.16
2018-09-21T03:16:45.408Z,19.27
2018-09-21T03:17:45.405Z,19.44
2018-09-21T03:18:45.405Z,19.52
2018-09-21T03:19:45.404Z,19.51
2018-09-21T03:20:45.405Z,19.59
2018-09-21T03:21:45.405Z,19.54
2018-09-21T03:22:45.405Z,19.64
2018-09-21T03:23:45.406Z,19.70
2018-09-21T03:24:45.406Z,19.73
2018-09-21T03:25:45.408Z,19.69
2018-09-21T03:26:45.409Z,19.67
2018-09-21T03:27:45.407Z,19.54
2018-09-21T03:28:45.409Z,19.51
2018-09-21T03:29:45.410Z,19.62
2018-09-21T03:30:45.412Z,19.56
2018-09-21T03:31:45.414Z,19.73
2018-09-21T03:32:45.411Z,19.66
2018-09-21T03:33:45.416Z,19.71
2018-09-21T03:34:45.414Z,19.71
2018-09-21T03:35:45.414Z,19.67
2018-09-21T03:36:45.414Z,19.67
2018-09-21T03:37:45.415Z,19.67
2018-09-21T03:38:45.415Z,19.77
2018-09-21T03:39:45.416Z,19.95
2018-09-21T03:40:45.417Z,19.96
2018-09-21T03:41:45.416Z,20.02
2018-09-21T03:42:45.419Z,20.10
2018-09-21T03:43:45.417Z,20.00
2018-09-21T03:44:45.419Z,20.14
2018-09-21T03:45:45.421Z,20.06
2018-09-21T03:46:45.420Z,19.96
2018-09-21T03:47:45.421Z,20.00
2018-09-21T03:48:45.422Z,20.04
2018-09-21T03:49:45.423Z,20.02
2018-09-21T03:50:45.425Z,20.11
2018-09-21T03:51:45.425Z,20.22
2018-09-21T03:52:45.425Z,20.24
2018-09-21T03:53:45.427Z,20.11
2018-09-21T03:54:45.425Z,20.29
2018-09-21T03:55:45.428Z,20.31
2018-09-21T03:56:45.430Z,20.37
2018-09-21T03:57:45.430Z,20.25
2018-09-21T03:58:45.430Z,20.43
2018-09-21T03:59:45.430Z,20.44
2018-09-21T04:00:45.432Z,20.40
2018-09-21T04:01:45.433Z,20.36
2018-09-21T04:02:45.433Z,20.55
2018-09-21T04:03:45.434Z,20.50
2018-09-21T04:04:45.437Z,20.39
2018-09-21T04:05:45.436Z,20.36
2018-09-21T04:06:45.437Z,20.40
2018-09-21T04:07:45.438Z,20.34
2018-09-21T04:08:45.441Z,20.43
2018-09-21T04:09:45.441Z,20.50
2018-09-21T04:10:45.442Z,20.43
2018-09-21T04:11:45.442Z,20.60
2018-09-21T04:12:45.447Z,20.41
2018-09-21T04:13:45.446Z,20.47
2018-09-21T04:14:45.444Z,20.51
2018-09-21T04:15:45.448Z,20.52
2018-09-21T04:16:45.449Z,20.55
2018-09-21T04:17:45.459Z,20.44
2018-09-21T04:18:45.451Z,20.47
2018-09-21T04:19:45.452Z,20.52
2018-09-21T04:20:45.454Z,20.44
2018-09-21T04:21:45.455Z,20.34
2018-09-21T04:22:45.459Z,20.48
2018-09-21T04:23:45.456Z,20.47
2018-09-21T04:24:45.457Z,20.48
2018-09-21T04:25:45.460Z,20.39
2018-09-21T04:26:45.459Z,20.41
2018-09-21T04:27:45.461Z,20.28
2018-09-21T04:28:45.463Z,20.29
2018-09-21T04:29:45.463Z,20.28
2018-09-21T04:30:45.465Z,20.31
2018-09-21T04:31:45.466Z,20.43
2018-09-21T04:32:45.468Z,20.55
2018-09-21T04:33:45.469Z,20.65
2018-09-21T04:34:45.471Z,20.77
2018-09-21T04:35:45.471Z,20.69
2018-09-21T04:36:45.478Z,20.74
2018-09-21T04:37:45.475Z,20.69
2018-09-21T04:38:45.475Z,20.75
2018-09-21T04:39:45.478Z,20.77
2018-09-21T04:40:45.478Z,20.82
2018-09-21T04:41:45.480Z,20.95
2018-09-21T04:42:45.481Z,20.85
2018-09-21T04:43:45.483Z,20.95
2018-09-21T04:44:45.485Z,20.85
2018-09-21T04:45:45.536Z,20.99
2018-09-21T04:46:45.496Z,20.95
2018-09-21T04:47:45.489Z,20.97
2018-09-21T04:48:45.489Z,21.03
2018-09-21T04:49:45.492Z,20.93
2018-09-21T04:50:45.492Z,20.87
2018-09-21T04:51:45.494Z,20.93
2018-09-21T04:52:45.497Z,20.74
2018-09-21T04:53:45.499Z,20.82
2018-09-21T04:54:45.498Z,20.85
2018-09-21T04:55:45.501Z,20.90
2018-09-21T04:56:45.501Z,20.85
2018-09-21T04:57:45.504Z,20.85
2018-09-21T04:58:45.504Z,20.93
2018-09-21T04:59:45.506Z,20.95
2018-09-21T05:00:45.507Z,20.85
2018-09-21T05:01:45.515Z,20.93
2018-09-21T05:02:45.511Z,20.88
2018-09-21T05:03:45.513Z,20.88
2018-09-21T05:04:45.515Z,20.99
2018-09-21T05:05:45.516Z,20.99
2018-09-21T05:06:45.517Z,21.06
2018-09-21T05:07:45.519Z,21.11
2018-09-21T05:08:45.521Z,21.14
2018-09-21T05:09:45.523Z,21.14
2018-09-21T05:10:45.525Z,21.15
2018-09-21T05:11:45.525Z,21.20
2018-09-21T05:12:45.528Z,21.20
2018-09-21T05:13:45.546Z,21.25
2018-09-21T05:14:45.535Z,21.39
2018-09-21T05:15:45.532Z,21.42
2018-09-21T05:16:45.535Z,21.36
2018-09-21T05:17:45.536Z,21.43
2018-09-21T05:18:45.538Z,21.37
2018-09-21T05:19:45.580Z,21.32
2018-09-21T05:20:45.542Z,21.40
2018-09-21T05:21:45.544Z,21.37
2018-09-21T05:22:45.544Z,21.32
2018-09-21T05:23:45.549Z,21.30
2018-09-21T05:24:45.550Z,21.50
2018-09-21T05:25:45.550Z,21.66
2018-09-21T05:26:45.552Z,21.75
2018-09-21T05:27:45.554Z,21.75
2018-09-21T05:28:45.557Z,21.70
2018-09-21T05:29:45.558Z,21.75
2018-09-21T05:30:45.560Z,21.82
2018-09-21T05:31:45.561Z,21.82
2018-09-21T05:32:45.564Z,21.80
2018-09-21T05:33:45.566Z,21.89
2018-09-21T05:34:45.684Z,21.92
2018-09-21T05:35:45.569Z,21.92
2018-09-21T05:36:45.572Z,21.95
2018-09-21T05:37:45.573Z,21.98
2018-09-21T05:38:45.576Z,22.07
2018-09-21T05:39:45.578Z,22.08
2018-09-21T05:40:45.580Z,21.98
2018-09-21T05:41:45.583Z,21.96
2018-09-21T05:42:45.583Z,22.00
2018-09-21T05:43:45.588Z,22.00
2018-09-21T05:44:45.589Z,22.14
2018-09-21T05:45:45.591Z,22.02
2018-09-21T05:46:45.592Z,22.11
2018-09-21T05:47:45.594Z,22.23
2018-09-21T05:48:45.600Z,22.25
2018-09-21T05:49:45.599Z,22.32
2018-09-21T05:50:45.601Z,22.38
2018-09-21T05:51:45.602Z,22.35
2018-09-21T05:52:45.606Z,22.50
2018-09-21T05:53:45.607Z,22.39
2018-09-21T05:54:45.610Z,22.38
2018-09-21T05:55:45.612Z,22.33
2018-09-21T05:56:45.614Z,22.32
2018-09-21T05:57:45.619Z,22.23
2018-09-21T05:58:45.619Z,22.25
2018-09-21T05:59:45.620Z,22.26
2018-09-21T06:00:45.623Z,22.20
2018-09-21T06:01:45.628Z,22.29
2018-09-21T06:02:45.646Z,22.20
2018-09-21T06:03:45.628Z,22.13
2018-09-21T06:04:45.632Z,22.28
2018-09-21T06:05:45.634Z,22.32
2018-09-21T06:06:45.637Z,22.20
2018-09-21T06:07:45.653Z,22.23
2018-09-21T06:08:45.643Z,22.28
2018-09-21T06:09:45.643Z,22.36
2018-09-21T06:10:45.648Z,22.35
2018-09-21T06:11:45.648Z,22.43
2018-09-21T06:12:45.650Z,22.47
2018-09-21T06:13:45.690Z,22.50
2018-09-21T06:14:45.655Z,22.50
2018-09-21T06:15:45.661Z,22.50
2018-09-21T06:16:45.660Z,22.39
2018-09-21T06:17:45.663Z,22.43
2018-09-21T06:18:45.666Z,22.39
2018-09-21T06:19:45.669Z,22.38
2018-09-21T06:20:45.670Z,22.35
2018-09-21T06:21:45.673Z,22.41
2018-09-21T06:22:45.682Z,22.35
2018-09-21T06:23:45.677Z,22.35
2018-09-21T06:24:45.681Z,22.44
2018-09-21T06:25:45.684Z,22.43
2018-09-21T06:26:45.686Z,22.50
2018-09-21T06:27:45.688Z,22.48
2018-09-21T06:28:45.692Z,22.48
2018-09-21T06:29:45.694Z,22.35
2018-09-21T06:30:45.697Z,22.35
2018-09-21T06:31:45.699Z,22.41
2018-09-21T06:32:45.703Z,22.39
2018-09-21T06:33:45.707Z,22.36
2018-09-21T06:34:45.708Z,22.38
2018-09-21T06:35:45.709Z,22.45
2018-09-21T06:36:45.712Z,22.32
2018-09-21T06:37:45.716Z,22.39
2018-09-21T06:38:45.721Z,22.36
2018-09-21T06:39:45.722Z,22.38
2018-09-21T06:40:45.724Z,22.38
2018-09-21T06:41:45.728Z,22.48
2018-09-21T06:42:45.732Z,22.53
2018-09-21T06:43:45.733Z,22.54
2018-09-21T06:44:45.735Z,22.53
2018-09-21T06:45:45.737Z,22.45
2018-09-21T06:46:45.741Z,22.50
2018-09-21T06:47:45.742Z,22.53
2018-09-21T06:48:45.753Z,22.50
2018-09-21T06:49:45.754Z,22.54
2018-09-21T06:50:45.753Z,22.50
2018-09-21T06:51:45.757Z,22.50
2018-09-21T06:52:45.760Z,22.53
2018-09-21T06:53:45.763Z,22.54
2018-09-21T06:54:45.764Z,22.65
2018-09-21T06:55:45.767Z,22.59
2018-09-21T06:56:45.771Z,22.50
2018-09-21T06:57:45.774Z,22.48
2018-09-21T06:58:45.776Z,22.54
2018-09-21T06:59:45.779Z,22.59
2018-09-21T07:00:45.785Z,22.57
2018-09-21T07:01:45.799Z,22.55
2018-09-21T07:02:45.789Z,22.59
2018-09-21T07:03:45.791Z,22.60
2018-09-21T07:04:45.795Z,22.50
2018-09-21T07:05:45.797Z,22.48
2018-09-21T07:06:45.800Z,22.47
2018-09-21T07:07:45.803Z,22.53
2018-09-21T07:08:45.806Z,22.41
2018-09-21T07:09:45.809Z,22.35
2018-09-21T07:10:45.811Z,22.33
2018-09-21T07:11:45.815Z,22.26
2018-09-21T07:12:45.818Z,22.25
2018-09-21T07:13:45.822Z,22.20
2018-09-21T07:14:45.823Z,22.07
2018-09-21T07:15:45.887Z,22.02
2018-09-21T07:16:45.828Z,21.99
2018-09-21T07:17:45.832Z,21.95
2018-09-21T07:18:45.836Z,21.92
2018-09-21T07:19:45.840Z,21.96
2018-09-21T07:20:45.842Z,21.89
2018-09-21T07:21:45.844Z,21.95
2018-09-21T07:22:45.845Z,21.88
2018-09-21T07:23:45.851Z,21.99
2018-09-21T07:24:45.851Z,21.91
2018-09-21T07:25:45.856Z,21.82
2018-09-21T07:26:45.857Z,21.96
2018-09-21T07:27:45.862Z,21.96
2018-09-21T07:28:45.863Z,21.96
2018-09-21T07:29:45.866Z,22.02
2018-09-21T07:30:45.919Z,21.99
2018-09-21T07:31:45.873Z,22.15
2018-09-21T07:32:45.874Z,22.25
2018-09-21T07:33:45.879Z,22.28
2018-09-21T07:34:45.880Z,22.33
2018-09-21T07:35:45.882Z,22.44
2018-09-21T07:36:45.886Z,22.47
2018-09-21T07:37:45.891Z,22.44
2018-09-21T07:38:45.892Z,22.45
2018-09-21T07:39:45.896Z,22.50
2018-09-21T07:40:45.897Z,22.33
2018-09-21T07:41:45.901Z,22.36
2018-09-21T07:42:45.903Z,22.35
2018-09-21T07:43:45.906Z,22.32
2018-09-21T07:44:45.914Z,22.36
2018-09-21T07:45:45.914Z,22.44
2018-09-21T07:46:45.914Z,22.39
2018-09-21T07:47:45.918Z,22.38
2018-09-21T07:48:45.957Z,22.36
2018-09-21T07:49:45.924Z,22.36
2018-09-21T07:50:45.929Z,22.35
2018-09-21T07:51:45.930Z,22.25
2018-09-21T07:52:45.935Z,22.22
2018-09-21T07:53:45.937Z,22.25
2018-09-21T07:54:45.939Z,22.28
2018-09-21T07:55:45.944Z,22.20
2018-09-21T07:56:45.946Z,22.35
2018-09-21T07:57:45.950Z,22.28
2018-09-21T07:58:45.952Z,22.25
2018-09-21T07:59:45.955Z,22.29
2018-09-21T08:00:45.958Z,22.38
2018-09-21T08:01:45.960Z,22.32
2018-09-21T08:02:45.964Z,22.41
2018-09-21T08:03:45.968Z,22.43
2018-09-21T08:04:45.970Z,22.39
2018-09-21T08:05:45.973Z,22.45
2018-09-21T08:06:45.975Z,22.39
2018-09-21T08:07:45.979Z,22.33
2018-09-21T08:08:45.983Z,22.44
2018-09-21T08:09:45.986Z,22.41
2018-09-21T08:10:45.986Z,22.54
2018-09-21T08:11:45.989Z,22.53
2018-09-21T08:12:46.002Z,22.47
2018-09-21T08:13:45.999Z,22.55
2018-09-21T08:14:45.998Z,22.57
2018-09-21T08:15:46.002Z,22.54
2018-09-21T08:16:46.006Z,22.38
2018-09-21T08:17:46.008Z,22.39
2018-09-21T08:18:46.011Z,22.36
2018-09-21T08:19:46.014Z,22.22
2018-09-21T08:20:46.017Z,22.23
2018-09-21T08:21:46.023Z,22.15
2018-09-21T08:22:46.023Z,22.17
2018-09-21T08:23:46.028Z,22.15
2018-09-21T08:24:46.029Z,22.14
2018-09-21T08:25:46.035Z,22.04
2018-09-21T08:26:46.036Z,21.93
2018-09-21T08:27:46.041Z,21.88
2018-09-21T08:28:46.043Z,21.82
2018-09-21T08:29:46.045Z,21.70
2018-09-21T08:30:46.049Z,21.69
2018-09-21T08:31:46.051Z,21.60
2018-09-21T08:32:46.056Z,21.60
2018-09-21T08:33:46.059Z,21.58
2018-09-21T08:34:46.060Z,21.54
2018-09-21T08:35:46.065Z,21.54
2018-09-21T08:36:46.067Z,21.54
2018-09-21T08:37:46.070Z,21.37
2018-09-21T08:38:46.073Z,21.36
2018-09-21T08:39:46.076Z,21.39
2018-09-21T08:40:46.078Z,21.27
2018-09-21T08:41:46.082Z,21.30
2018-09-21T08:42:46.084Z,21.20
2018-09-21T08:43:46.088Z,21.02
2018-09-21T08:44:46.091Z,20.88
2018-09-21T08:45:46.093Z,20.80
2018-09-21T08:46:46.096Z,20.43
2018-09-21T08:47:46.098Z,20.21
2018-09-21T08:48:46.100Z,20.07
2018-09-21T08:49:46.104Z,19.99
2018-09-21T08:50:46.105Z,19.69
2018-09-21T08:51:46.108Z,19.66
2018-09-21T08:52:46.112Z,19.41
2018-09-21T08:53:46.115Z,19.33
2018-09-21T08:54:46.116Z,19.26
2018-09-21T08:55:46.118Z,19.11
2018-09-21T08:56:46.120Z,19.02
2018-09-21T08:57:46.122Z,17.92
2018-09-21T08:58:46.124Z,17.24
2018-09-21T08:59:46.126Z,16.75
2018-09-21T09:00:46.128Z,16.61
2018-09-21T09:01:46.134Z,16.29
2018-09-21T09:02:46.200Z,15.97
2018-09-21T09:03:46.133Z,15.68
2018-09-21T09:04:46.134Z,15.59
2018-09-21T09:05:46.137Z,15.46
2018-09-21T09:06:46.136Z,15.43
2018-09-21T09:07:46.139Z,15.22
2018-09-21T09:08:46.140Z,15.18
2018-09-21T09:09:46.142Z,15.24
2018-09-21T09:10:46.141Z,15.25
2018-09-21T09:11:46.141Z,15.29
2018-09-21T09:12:46.142Z,15.25
2018-09-21T09:13:46.145Z,15.33
2018-09-21T09:14:46.143Z,15.27
2018-09-21T09:15:46.144Z,15.42
2018-09-21T09:16:46.143Z,15.39
2018-09-21T09:17:46.145Z,15.51
2018-09-21T09:18:46.143Z,15.49
2018-09-21T09:19:46.144Z,15.49
2018-09-21T09:20:46.144Z,15.52
2018-09-21T09:21:46.144Z,15.51
2018-09-21T09:22:46.144Z,15.46
2018-09-21T09:23:46.142Z,15.62
2018-09-21T09:24:46.143Z,15.75
2018-09-21T09:25:46.144Z,15.73
2018-09-21T09:26:46.141Z,15.90
2018-09-21T09:27:46.143Z,15.86
2018-09-21T09:28:46.143Z,15.88
2018-09-21T09:29:46.141Z,15.95
2018-09-21T09:30:46.141Z,15.97
2018-09-21T09:31:46.140Z,16.02
2018-09-21T09:32:46.142Z,15.98
2018-09-21T09:33:46.141Z,16.02
2018-09-21T09:34:46.140Z,16.08
2018-09-21T09:35:46.140Z,15.98
2018-09-21T09:36:46.197Z,16.02
2018-09-21T09:37:46.140Z,16.16
2018-09-21T09:38:46.139Z,16.15
2018-09-21T09:39:46.137Z,16.28
2018-09-21T09:40:46.141Z,16.26
2018-09-21T09:41:46.140Z,16.29
2018-09-21T09:42:46.164Z,16.26
2018-09-21T09:43:46.139Z,16.23
2018-09-21T09:44:46.141Z,16.16
2018-09-21T09:45:46.142Z,16.15
2018-09-21T09:46:46.138Z,16.12
2018-09-21T09:47:46.140Z,16.24
2018-09-21T09:48:46.218Z,16.24
2018-09-21T09:49:46.140Z,16.29
2018-09-21T09:50:46.139Z,16.29
2018-09-21T09:51:46.139Z,16.42
2018-09-21T09:52:46.138Z,16.46
2018-09-21T09:53:46.139Z,16.43
2018-09-21T09:54:46.144Z,16.39
2018-09-21T09:55:46.138Z,16.41
2018-09-21T09:56:46.139Z,16.41
2018-09-21T09:57:46.139Z,16.41
2018-09-21T09:58:46.138Z,16.43
2018-09-21T09:59:46.138Z,16.28
2018-09-21T10:00:46.140Z,16.13
2018-09-21T10:01:46.144Z,16.13
2018-09-21T10:02:46.137Z,16.15
2018-09-21T10:03:46.228Z,16.12
2018-09-21T10:04:46.141Z,16.29
2018-09-21T10:05:46.139Z,16.17
2018-09-21T10:06:46.138Z,16.31
2018-09-21T10:07:46.135Z,16.16
2018-09-21T10:08:46.140Z,16.31
2018-09-21T10:09:46.140Z,16.21
2018-09-21T10:10:46.143Z,16.16
2018-09-21T10:11:46.142Z,16.13
2018-09-21T10:12:46.138Z,16.10
2018-09-21T10:13:46.137Z,16.01
2018-09-21T10:14:46.137Z,16.15
2018-09-21T10:15:46.136Z,16.13
2018-09-21T10:16:46.136Z,16.12
2018-09-21T10:17:46.137Z,16.33
2018-09-21T10:18:46.141Z,16.23
2018-09-21T10:19:46.137Z,16.24
2018-09-21T10:20:46.169Z,16.32
2018-09-21T10:21:46.138Z,16.16
2018-09-21T10:22:46.136Z,16.12
2018-09-21T10:23:46.136Z,16.16
2018-09-21T10:24:46.137Z,16.20
2018-09-21T10:25:46.135Z,16.13
2018-09-21T10:26:46.167Z,16.15
2018-09-21T10:27:46.274Z,16.13
2018-09-21T10:28:46.207Z,16.32
2018-09-21T10:29:46.137Z,16.36
2018-09-21T10:30:46.134Z,16.42
2018-09-21T10:31:46.146Z,16.39
2018-09-21T10:32:46.135Z,16.36
2018-09-21T10:33:46.334Z,16.23
2018-09-21T10:34:46.135Z,16.28
2018-09-21T10:35:46.206Z,16.29
2018-09-21T10:36:46.136Z,16.28
2018-09-21T10:37:46.135Z,16.23
2018-09-21T10:38:46.134Z,16.20
2018-09-21T10:39:46.135Z,16.13
2018-09-21T10:40:46.134Z,16.16
2018-09-21T10:41:46.135Z,16.20
2018-09-21T10:42:46.237Z,16.29
2018-09-21T10:43:46.134Z,16.47
2018-09-21T10:44:46.135Z,16.39
2018-09-21T10:45:46.135Z,16.42
2018-09-21T10:46:46.131Z,16.39
2018-09-21T10:47:46.133Z,16.49
2018-09-21T10:48:46.132Z,16.47
2018-09-21T10:49:46.133Z,16.51
2018-09-21T10:50:46.131Z,16.58
2018-09-21T10:51:46.132Z,16.86
2018-09-21T10:52:46.201Z,16.94
2018-09-21T10:53:46.136Z,17.05
2018-09-21T10:54:46.131Z,17.36
2018-09-21T10:55:46.132Z,17.42
2018-09-21T10:56:46.131Z,17.60
2018-09-21T10:57:46.133Z,17.39
2018-09-21T10:58:46.176Z,17.24
2018-09-21T10:59:46.132Z,17.29
2018-09-21T11:00:46.133Z,17.44
2018-09-21T11:01:46.133Z,17.49
2018-09-21T11:02:46.133Z,17.64
2018-09-21T11:03:46.137Z,17.52
2018-09-21T11:04:46.133Z,17.46
2018-09-21T11:05:46.135Z,17.45
2018-09-21T11:06:46.135Z,17.42
2018-09-21T11:07:46.136Z,17.52
2018-09-21T11:08:46.136Z,17.38
2018-09-21T11:09:46.140Z,17.42
2018-09-21T11:10:46.136Z,17.57
2018-09-21T11:11:46.139Z,17.54
2018-09-21T11:12:46.141Z,17.76
2018-09-21T11:13:46.144Z,17.67
2018-09-21T11:14:46.141Z,17.52
2018-09-21T11:15:46.143Z,17.48
2018-09-21T11:16:46.144Z,17.45
2018-09-21T11:17:46.146Z,17.54
2018-09-21T11:18:46.147Z,17.26
2018-09-21T11:19:46.146Z,17.30
2018-09-21T11:20:46.148Z,17.42
2018-09-21T11:21:46.148Z,17.41
2018-09-21T11:22:46.150Z,17.23
2018-09-21T11:23:46.151Z,17.23
2018-09-21T11:24:46.154Z,17.02
2018-09-21T11:25:46.154Z,17.02
2018-09-21T11:26:46.153Z,16.89
2018-09-21T11:27:46.156Z,16.86
2018-09-21T11:28:46.155Z,16.78
2018-09-21T11:29:46.158Z,16.66
2018-09-21T11:30:46.156Z,16.68
2018-09-21T11:31:46.159Z,16.72
2018-09-21T11:32:46.161Z,16.79
2018-09-21T11:33:46.164Z,16.71
2018-09-21T11:34:46.159Z,16.69
2018-09-21T11:35:46.162Z,16.60
2018-09-21T11:36:46.161Z,16.51
2018-09-21T11:37:46.161Z,16.49
2018-09-21T11:38:46.162Z,16.50
2018-09-21T11:39:46.162Z,16.54
2018-09-21T11:40:46.164Z,16.46
2018-09-21T11:41:46.165Z,16.47
2018-09-21T11:42:46.164Z,16.43
2018-09-21T11:43:46.164Z,16.53
2018-09-21T11:44:46.166Z,16.43
2018-09-21T11:45:46.168Z,16.47
2018-09-21T11:46:46.242Z,16.41
2018-09-21T11:47:46.198Z,16.36
2018-09-21T11:48:46.168Z,16.43
2018-09-21T11:49:46.166Z,16.47
2018-09-21T11:50:46.165Z,16.58
2018-09-21T11:51:46.166Z,16.68
2018-09-21T11:52:46.168Z,16.78
2018-09-21T11:53:46.171Z,16.78
2018-09-21T11:54:46.166Z,16.75
2018-09-21T11:55:46.168Z,16.86
2018-09-21T11:56:46.167Z,16.75
2018-09-21T11:57:46.167Z,16.81
2018-09-21T11:58:46.167Z,16.99
2018-09-21T11:59:46.167Z,17.05
2018-09-21T12:00:46.168Z,17.08
2018-09-21T12:01:46.217Z,17.26
2018-09-21T12:02:46.170Z,17.14
2018-09-21T12:03:46.168Z,17.05
2018-09-21T12:04:46.169Z,17.19
2018-09-21T12:05:46.171Z,17.20
2018-09-21T12:06:46.169Z,17.30
2018-09-21T12:07:46.169Z,17.19
2018-09-21T12:08:46.171Z,17.31
2018-09-21T12:09:46.170Z,17.31
2018-09-21T12:10:46.173Z,17.36
2018-09-21T12:11:46.170Z,17.29
2018-09-21T12:12:46.171Z,17.36
2018-09-21T12:13:46.173Z,17.45
2018-09-21T12:14:46.172Z,17.39
2018-09-21T12:15:46.175Z,17.45
2018-09-21T12:16:46.176Z,17.48
2018-09-21T12:17:46.176Z,17.39
2018-09-21T12:18:46.174Z,17.42
2018-09-21T12:19:46.177Z,17.52
2018-09-21T12:20:46.181Z,17.56
2018-09-21T12:21:46.177Z,17.49
2018-09-21T12:22:46.242Z,17.57
2018-09-21T12:23:46.178Z,17.56
2018-09-21T12:24:46.179Z,17.59
2018-09-21T12:25:46.179Z,17.59
2018-09-21T12:26:46.179Z,17.65
2018-09-21T12:27:46.178Z,17.67
2018-09-21T12:28:46.180Z,17.60
2018-09-21T12:29:46.182Z,17.41
2018-09-21T12:30:46.182Z,17.60
2018-09-21T12:31:46.187Z,17.65
2018-09-21T12:32:46.183Z,17.54
2018-09-21T12:33:46.184Z,17.57
2018-09-21T12:34:46.185Z,17.46
2018-09-21T12:35:46.186Z,17.41
2018-09-21T12:36:46.187Z,17.46
2018-09-21T12:37:46.188Z,17.31
2018-09-21T12:38:46.225Z,17.34
2018-09-21T12:39:46.189Z,17.31
2018-09-21T12:40:46.189Z,17.11
2018-09-21T12:41:46.189Z,17.19
2018-09-21T12:42:46.191Z,17.06
2018-09-21T12:43:46.191Z,17.14
2018-09-21T12:44:46.255Z,17.19
2018-09-21T12:45:46.194Z,17.09
2018-09-21T12:46:46.191Z,17.15
2018-09-21T12:47:46.192Z,17.26
2018-09-21T12:48:46.192Z,17.38
2018-09-21T12:49:46.193Z,17.41
2018-09-21T12:50:46.216Z,17.42
2018-09-21T12:51:46.195Z,17.29
2018-09-21T12:52:46.195Z,17.38